createdAt,value
2023-02-26T00:05:19.382Z,86.70
2023-02-26T00:07:58.510Z,86.30
2023-02-26T00:10:58.280Z,86.50
2023-02-26T00:13:58.029Z,86.10
2023-02-26T00:16:39.645Z,85.50
2023-02-26T00:19:16.041Z,85.90
2023-02-26T00:21:49.540Z,85.50
2023-02-26T00:24:20.400Z,85.90
2023-02-26T00:26:59.039Z,86.20
2023-02-26T00:29:44.873Z,85.90
2023-02-26T00:32:26.167Z,85.70
2023-02-26T00:35:22.812Z,85.60
2023-02-26T00:38:37.451Z,85.40
2023-02-26T00:45:36.168Z,85.80
2023-02-26T00:52:00.772Z,85.10
2023-02-26T00:59:50.819Z,85.60
2023-02-26T01:02:44.290Z,85.40
2023-02-26T01:05:45.837Z,85.50
2023-02-26T01:08:27.368Z,85.40
2023-02-26T01:22:17.202Z,85.40
2023-02-26T01:24:49.115Z,85.70
2023-02-26T01:27:20.478Z,85.70
2023-02-26T01:29:49.238Z,85.70
2023-02-26T01:32:21.239Z,85.70
2023-02-26T01:35:43.001Z,85.60
2023-02-26T01:42:48.136Z,85.70
2023-02-26T01:50:07.570Z,85.90
2023-02-26T01:57:22.955Z,85.90
2023-02-26T02:03:12.160Z,85.60
2023-02-26T02:05:44.988Z,85.80
2023-02-26T02:12:27.698Z,86.10
2023-02-26T02:15:17.065Z,85.90
2023-02-26T02:17:53.080Z,85.60
2023-02-26T02:20:45.119Z,85.60
2023-02-26T02:23:20.495Z,85.40
2023-02-26T02:26:08.112Z,85.30
2023-02-26T02:28:46.561Z,85.70
2023-02-26T02:31:20.240Z,85.80
2023-02-26T02:33:52.414Z,86.00
2023-02-26T02:36:26.408Z,85.70
2023-02-26T02:38:59.531Z,85.30
2023-02-26T02:41:33.568Z,85.50
2023-02-26T02:44:05.482Z,85.50
2023-02-26T02:46:39.741Z,85.40
2023-02-26T02:49:11.809Z,85.40
2023-02-26T02:51:45.847Z,85.30
2023-02-26T02:54:17.709Z,85.10
2023-02-26T02:56:51.684Z,85.10
2023-02-26T02:59:25.750Z,85.10
2023-02-26T03:02:01.087Z,85.50
2023-02-26T03:04:29.505Z,85.20
2023-02-26T03:07:00.120Z,85.60
2023-02-26T03:09:30.522Z,86.30
2023-02-26T03:11:58.793Z,85.60
2023-02-26T03:14:27.834Z,85.60
2023-02-26T03:17:17.020Z,85.30
2023-02-26T03:20:00.882Z,84.60
2023-02-26T03:22:37.315Z,84.70
2023-02-26T03:25:13.417Z,85.10
2023-02-26T03:27:49.028Z,85.40
2023-02-26T03:30:58.695Z,85.00
2023-02-26T03:33:41.596Z,84.80
2023-02-26T03:36:14.638Z,84.80
2023-02-26T03:38:55.816Z,84.80
2023-02-26T03:41:31.051Z,84.50
2023-02-26T03:44:02.911Z,84.60
2023-02-26T03:46:36.498Z,84.40
2023-02-26T03:49:12.073Z,84.20
2023-02-26T03:51:42.911Z,84.30
2023-02-26T03:54:40.198Z,84.40
2023-02-26T03:57:28.948Z,84.80
2023-02-26T04:00:14.312Z,84.60
2023-02-26T04:02:48.431Z,84.50
2023-02-26T04:05:23.850Z,84.60
2023-02-26T04:07:52.547Z,84.10
2023-02-26T04:10:30.558Z,84.00
2023-02-26T04:13:01.034Z,84.40
2023-02-26T04:15:29.725Z,84.30
2023-02-26T04:17:57.983Z,84.10
2023-02-26T04:20:27.841Z,84.00
2023-02-26T04:22:56.353Z,84.30
2023-02-26T04:26:21.468Z,84.60
2023-02-26T04:28:50.196Z,84.30
2023-02-26T04:31:34.600Z,84.20
2023-02-26T04:34:12.751Z,84.40
2023-02-26T04:37:27.417Z,84.40
2023-02-26T04:40:04.237Z,84.20
2023-02-26T04:42:54.054Z,84.60
2023-02-26T04:45:49.550Z,84.60
2023-02-26T04:48:28.247Z,84.40
2023-02-26T04:51:15.124Z,83.90
2023-02-26T04:54:48.311Z,84.00
2023-02-26T04:57:52.198Z,83.70
2023-02-26T05:00:44.817Z,83.70
2023-02-26T05:03:29.197Z,83.80
2023-02-26T05:06:12.783Z,83.30
2023-02-26T05:08:50.809Z,83.50
2023-02-26T05:11:34.455Z,83.80
2023-02-26T05:14:06.282Z,83.40
2023-02-26T05:16:50.692Z,83.50
2023-02-26T05:19:31.012Z,83.50
2023-02-26T05:22:30.817Z,83.00
2023-02-26T05:25:26.431Z,83.00
2023-02-26T05:28:41.315Z,82.60
2023-02-26T05:31:31.769Z,82.60
2023-02-26T05:37:36.790Z,82.60
2023-02-26T05:40:15.602Z,82.20
2023-02-26T05:42:57.989Z,82.30
2023-02-26T05:45:54.623Z,82.20
2023-02-26T05:48:40.443Z,82.60
2023-02-26T05:51:25.229Z,82.60
2023-02-26T05:54:13.660Z,82.70
2023-02-26T05:56:56.243Z,82.40
2023-02-26T05:59:38.134Z,82.60
2023-02-26T06:03:01.938Z,82.10
2023-02-26T06:05:48.835Z,81.90
2023-02-26T06:08:43.507Z,82.10
2023-02-26T06:11:41.745Z,82.30
2023-02-26T06:14:22.269Z,82.30
2023-02-26T06:17:19.543Z,82.10
2023-02-26T06:20:12.668Z,81.90
2023-02-26T06:23:04.293Z,82.40
2023-02-26T06:26:02.984Z,82.10
2023-02-26T06:28:55.020Z,82.20
2023-02-26T06:31:46.030Z,82.10
2023-02-26T06:34:40.239Z,82.40
2023-02-26T06:37:27.473Z,82.50
2023-02-26T06:40:16.859Z,82.40
2023-02-26T06:42:59.151Z,82.70
2023-02-26T06:45:43.539Z,82.00
2023-02-26T06:48:33.595Z,82.50
2023-02-26T06:51:18.944Z,82.40
2023-02-26T06:53:52.258Z,82.40
2023-02-26T06:56:35.065Z,82.60
2023-02-26T06:59:25.112Z,82.20
2023-02-26T07:02:04.717Z,82.20
2023-02-26T07:04:40.794Z,82.10
2023-02-26T07:07:27.383Z,82.70
2023-02-26T07:10:27.633Z,82.60
2023-02-26T07:13:05.115Z,81.90
2023-02-26T07:15:51.134Z,82.10
2023-02-26T07:18:44.254Z,82.20
2023-02-26T07:21:23.331Z,82.40
2023-02-26T07:24:19.507Z,81.90
2023-02-26T07:27:21.800Z,82.10
2023-02-26T07:30:03.667Z,81.70
2023-02-26T07:32:53.088Z,81.50
2023-02-26T07:35:43.238Z,81.20
2023-02-26T07:38:28.435Z,81.30
2023-02-26T07:41:09.584Z,81.10
2023-02-26T07:43:59.126Z,81.70
2023-02-26T07:46:36.647Z,81.80
2023-02-26T07:49:37.498Z,81.50
2023-02-26T07:52:12.768Z,81.50
2023-02-26T07:54:56.701Z,80.90
2023-02-26T07:57:38.840Z,80.70
2023-02-26T08:00:31.052Z,80.30
2023-02-26T08:03:28.041Z,80.50
2023-02-26T08:06:09.814Z,80.70
2023-02-26T08:08:38.784Z,80.80
2023-02-26T08:11:07.256Z,80.70
2023-02-26T08:13:53.882Z,81.10
2023-02-26T08:16:50.553Z,80.30
2023-02-26T08:19:30.302Z,80.00
2023-02-26T08:22:24.694Z,80.80
2023-02-26T08:25:31.324Z,81.20
2023-02-26T08:28:25.756Z,80.60
2023-02-26T08:31:13.711Z,80.80
2023-02-26T08:34:26.710Z,80.50
2023-02-26T08:37:38.609Z,80.60
2023-02-26T08:44:22.295Z,81.00
2023-02-26T08:47:28.135Z,80.70
2023-02-26T08:50:43.322Z,80.10
2023-02-26T09:03:46.235Z,79.70
2023-02-26T09:07:11.463Z,79.50
2023-02-26T09:10:08.564Z,79.30
2023-02-26T09:16:25.414Z,79.00
2023-02-26T09:22:53.667Z,79.40
2023-02-26T09:25:42.961Z,79.00
2023-02-26T09:28:43.055Z,79.60
2023-02-26T09:31:45.237Z,79.80
2023-02-26T09:38:27.751Z,78.30
2023-02-26T09:41:17.574Z,77.40
2023-02-26T09:44:02.144Z,78.10
2023-02-26T09:46:39.588Z,78.60
2023-02-26T09:49:19.298Z,78.30
2023-02-26T09:52:21.870Z,78.00
2023-02-26T09:55:43.711Z,77.80
2023-02-26T09:58:59.658Z,77.30
2023-02-26T10:01:55.923Z,77.60
2023-02-26T10:05:04.711Z,77.70
2023-02-26T10:11:51.716Z,77.00
2023-02-26T10:14:41.462Z,77.00
2023-02-26T10:28:30.690Z,75.60
2023-02-26T10:44:29.293Z,74.30
2023-02-26T11:05:50.863Z,75.40
2023-02-26T11:08:28.493Z,75.20
2023-02-26T12:06:50.614Z,69.60
2023-02-26T12:15:38.053Z,70.20
2023-02-26T12:26:22.457Z,68.70
2023-02-26T12:29:42.399Z,68.10
2023-02-26T12:33:05.956Z,68.30
2023-02-26T12:39:50.904Z,67.10
2023-02-26T12:42:49.522Z,67.60
2023-02-26T12:45:44.017Z,67.50
2023-02-26T12:48:55.746Z,67.20
2023-02-26T12:51:54.085Z,67.10
2023-02-26T12:55:03.201Z,66.90
2023-02-26T12:58:09.162Z,66.80
2023-02-26T13:01:13.177Z,66.80
2023-02-26T13:04:15.555Z,67.10
2023-02-26T13:07:22.542Z,67.30
2023-02-26T13:10:29.181Z,67.80
2023-02-26T13:13:13.203Z,67.60
2023-02-26T13:16:17.944Z,67.90
2023-02-26T13:19:09.734Z,67.80
2023-02-26T13:22:01.678Z,67.60
2023-02-26T13:24:46.101Z,67.90
2023-02-26T13:27:44.955Z,67.80
2023-02-26T13:30:30.952Z,67.30
2023-02-26T13:33:09.751Z,67.30
2023-02-26T13:35:51.928Z,67.60
2023-02-26T13:38:25.832Z,67.20
2023-02-26T13:41:50.796Z,66.40
2023-02-26T13:45:18.497Z,66.00
2023-02-26T13:49:08.412Z,66.70
2023-02-26T13:52:41.809Z,68.20
2023-02-26T13:55:49.153Z,68.20
2023-02-26T13:59:02.566Z,67.80
2023-02-26T14:01:52.441Z,68.10
2023-02-26T14:04:46.262Z,68.60
2023-02-26T14:11:26.073Z,67.60
2023-02-26T14:14:52.472Z,67.60
2023-02-26T14:18:21.627Z,67.60
2023-02-26T14:25:29.497Z,67.10
2023-02-26T14:29:03.371Z,66.70
2023-02-26T14:32:29.152Z,66.40
2023-02-26T14:39:22.064Z,65.70
2023-02-26T14:43:00.291Z,66.80
2023-02-26T14:45:55.019Z,66.20
2023-02-26T14:48:57.037Z,66.50
2023-02-26T14:51:50.188Z,66.80
2023-02-26T14:54:58.385Z,66.40
2023-02-26T14:57:37.426Z,65.60
2023-02-26T15:00:19.213Z,65.20
2023-02-26T15:03:34.247Z,64.70
2023-02-26T15:06:46.644Z,64.90
2023-02-26T15:14:26.979Z,64.20
2023-02-26T15:21:36.647Z,64.60
2023-02-26T15:24:20.593Z,65.20
2023-02-26T15:27:00.566Z,65.50
2023-02-26T15:29:39.872Z,65.70
2023-02-26T15:32:57.658Z,65.90
2023-02-26T15:35:49.175Z,66.20
2023-02-26T15:38:32.048Z,66.80
2023-02-26T15:41:21.661Z,66.70
2023-02-26T15:43:59.709Z,66.50
2023-02-26T15:46:42.673Z,66.90
2023-02-26T15:49:35.264Z,66.80
2023-02-26T15:52:15.527Z,66.90
2023-02-26T15:54:56.022Z,66.60
2023-02-26T15:57:39.010Z,66.80
2023-02-26T16:00:41.425Z,66.40
2023-02-26T16:03:25.289Z,66.50
2023-02-26T16:06:06.367Z,66.70
2023-02-26T16:08:51.712Z,66.50
2023-02-26T16:14:39.304Z,66.60
2023-02-26T16:17:45.045Z,66.90
2023-02-26T16:20:33.448Z,66.80
2023-02-26T16:23:49.149Z,67.20
2023-02-26T16:27:23.154Z,66.80
2023-02-26T16:30:35.455Z,66.70
2023-02-26T16:33:34.677Z,66.90
2023-02-26T16:36:31.565Z,67.10
2023-02-26T16:39:25.670Z,66.90
2023-02-26T16:49:04.317Z,66.90
2023-02-26T16:55:23.420Z,66.60
2023-02-26T16:58:09.823Z,66.90
2023-02-26T17:01:19.768Z,66.70
2023-02-26T17:03:59.095Z,66.90
2023-02-26T17:06:51.917Z,67.00
2023-02-26T17:09:44.884Z,67.00
2023-02-26T17:12:18.378Z,67.00
2023-02-26T17:15:12.555Z,67.20
2023-02-26T17:17:58.167Z,67.60
2023-02-26T17:20:33.588Z,67.70
2023-02-26T17:23:37.666Z,67.80
2023-02-26T17:29:18.120Z,67.70
2023-02-26T17:31:47.607Z,67.90
2023-02-26T17:34:21.410Z,68.00
2023-02-26T17:37:09.018Z,67.60
2023-02-26T17:39:45.702Z,67.50
2023-02-26T17:42:21.240Z,67.70
2023-02-26T17:45:27.439Z,67.50
2023-02-26T17:48:02.747Z,68.00
2023-02-26T17:53:36.478Z,67.90
2023-02-26T17:56:05.312Z,68.00
2023-02-26T17:58:45.939Z,67.80
2023-02-26T18:01:19.636Z,67.40
2023-02-26T18:03:58.269Z,67.60
2023-02-26T18:06:38.896Z,67.90
2023-02-26T18:09:16.541Z,67.50
2023-02-26T18:12:10.280Z,67.60
2023-02-26T18:14:48.858Z,67.70
2023-02-26T18:17:33.715Z,67.80
2023-02-26T18:20:05.303Z,67.80
2023-02-26T18:25:39.261Z,68.00
2023-02-26T18:28:14.273Z,68.10
2023-02-26T18:30:47.325Z,68.00
2023-02-26T18:33:25.612Z,68.20
2023-02-26T18:35:59.359Z,68.20
2023-02-26T18:38:45.586Z,68.50
2023-02-26T18:41:28.638Z,68.60
2023-02-26T18:44:19.479Z,68.50
2023-02-26T18:47:11.300Z,68.30
2023-02-26T18:49:56.180Z,68.90
2023-02-26T18:52:30.921Z,68.30
2023-02-26T18:55:14.602Z,68.50
2023-02-26T18:57:55.716Z,68.50
2023-02-26T19:00:34.439Z,68.50
2023-02-26T19:03:29.817Z,68.10
2023-02-26T19:06:00.137Z,68.30
2023-02-26T19:08:31.204Z,68.20
2023-02-26T19:11:09.822Z,68.20
2023-02-26T19:13:52.539Z,68.50
2023-02-26T19:16:31.056Z,68.50
2023-02-26T19:19:05.459Z,68.60
2023-02-26T19:21:53.906Z,68.30
2023-02-26T19:24:42.590Z,68.70
2023-02-26T19:27:31.607Z,68.60
2023-02-26T19:30:06.741Z,68.40
2023-02-26T19:32:38.157Z,68.30
2023-02-26T19:35:13.870Z,68.80
2023-02-26T19:37:43.465Z,68.50
2023-02-26T19:40:25.978Z,68.50
2023-02-26T19:43:29.590Z,68.70
2023-02-26T19:46:09.925Z,69.00
2023-02-26T19:49:00.172Z,68.80
2023-02-26T19:51:30.939Z,68.50
2023-02-26T19:53:59.871Z,69.20
2023-02-26T19:56:31.355Z,68.60
2023-02-26T19:59:05.730Z,68.40
2023-02-26T20:01:37.510Z,68.50
2023-02-26T20:04:20.429Z,68.50
2023-02-26T20:06:50.742Z,68.40
2023-02-26T20:09:40.264Z,68.60
2023-02-26T20:12:10.649Z,68.60
2023-02-26T20:14:45.684Z,68.20
2023-02-26T20:17:20.723Z,69.10
2023-02-26T20:20:01.383Z,68.40
2023-02-26T20:25:34.648Z,68.40
2023-02-26T20:28:12.844Z,68.30
2023-02-26T20:31:07.550Z,67.90
2023-02-26T20:33:54.007Z,67.90
2023-02-26T20:36:23.730Z,67.90
2023-02-26T20:39:05.839Z,67.90
2023-02-26T20:41:56.772Z,67.80
2023-02-26T20:44:40.814Z,67.70
2023-02-26T20:47:12.203Z,68.00
2023-02-26T20:49:41.712Z,67.80
2023-02-26T20:52:11.256Z,68.00
2023-02-26T20:54:40.575Z,68.10
2023-02-26T20:57:09.735Z,67.80
2023-02-26T20:59:38.885Z,67.80
2023-02-26T21:02:10.917Z,67.60
2023-02-26T21:04:45.182Z,67.80
2023-02-26T21:07:21.862Z,67.40
2023-02-26T21:09:52.194Z,67.50
2023-02-26T21:12:30.901Z,67.50
2023-02-26T21:14:59.814Z,67.30
2023-02-26T21:17:28.837Z,67.60
2023-02-26T21:19:58.613Z,67.40
2023-02-26T21:22:26.969Z,67.40
2023-02-26T21:24:55.452Z,67.50
2023-02-26T21:27:23.950Z,67.30
2023-02-26T21:29:55.746Z,67.20
2023-02-26T21:32:24.804Z,67.30
2023-02-26T21:34:53.717Z,67.40
2023-02-26T21:37:25.073Z,67.30
2023-02-26T21:39:53.821Z,67.50
2023-02-26T21:42:22.854Z,67.30
2023-02-26T21:44:51.414Z,67.60
2023-02-26T21:47:21.978Z,67.30
2023-02-26T21:49:50.513Z,67.60
2023-02-26T21:52:19.380Z,67.20
2023-02-26T21:54:49.727Z,67.80
2023-02-26T21:57:17.993Z,67.30
2023-02-26T21:59:46.363Z,67.10
2023-02-26T22:02:14.700Z,66.80
2023-02-26T22:04:43.552Z,67.10
2023-02-26T22:07:14.963Z,67.10
2023-02-26T22:09:46.243Z,67.20
2023-02-26T22:12:17.461Z,67.20
2023-02-26T22:14:46.041Z,67.10
2023-02-26T22:17:14.350Z,67.00
2023-02-26T22:19:43.312Z,66.90
2023-02-26T22:22:11.645Z,66.80
2023-02-26T22:24:41.035Z,67.10
2023-02-26T22:27:09.584Z,67.20
2023-02-26T22:29:39.680Z,66.90
2023-02-26T22:32:08.580Z,67.10
2023-02-26T22:34:37.230Z,66.80
2023-02-26T22:37:05.663Z,66.70
2023-02-26T22:39:34.264Z,67.10
2023-02-26T22:42:02.715Z,66.80
2023-02-26T22:44:31.267Z,66.80
2023-02-26T22:47:01.088Z,66.70
2023-02-26T22:49:30.310Z,67.20
2023-02-26T22:51:58.925Z,67.20
2023-02-26T22:54:27.663Z,66.90
2023-02-26T22:56:56.354Z,66.80
2023-02-26T22:59:25.124Z,66.70
2023-02-26T23:01:53.674Z,66.90
2023-02-26T23:04:23.904Z,66.80
2023-02-26T23:06:52.331Z,66.80
2023-02-26T23:09:21.196Z,67.20
2023-02-26T23:11:49.667Z,66.90
2023-02-26T23:14:18.393Z,67.10
2023-02-26T23:16:47.064Z,66.80
2023-02-26T23:19:15.568Z,66.90
2023-02-26T23:21:47.397Z,66.90
2023-02-26T23:24:15.994Z,66.90
2023-02-26T23:26:44.378Z,66.80
2023-02-26T23:29:12.710Z,66.90
2023-02-26T23:31:42.043Z,67.10
2023-02-26T23:34:11.330Z,66.90
2023-02-26T23:36:39.728Z,66.90
2023-02-26T23:39:09.714Z,67.20
2023-02-26T23:41:38.318Z,67.00
2023-02-26T23:44:06.918Z,67.10
2023-02-26T23:46:35.456Z,66.90
2023-02-26T23:49:03.961Z,66.80
2023-02-26T23:51:32.243Z,67.10
2023-02-26T23:54:00.664Z,66.90
2023-02-26T23:56:30.448Z,66.90
2023-02-26T23:58:58.976Z,67.00
